Time;durP1;ratioP1;P1;durP2;ratioP2;P2;SDS_P1;SDS_P2;PMS_P1;PMS_P2;Temp;Humidity;BMP_temperature;BMP_pressure;BME280_temperature;BME280_humidity;BME280_pressure;Samples;Min_cycle;Max_cycle;Signal;HPM_P1;HPM_P2
2021/09/25 00:00:24;;;;;;;58.67;3.00;;;11.80;1.00;;;;;;5051645;28;20452;-68
2021/09/25 00:02:51;;;;;;;59.80;4.07;;;11.70;1.00;;;;;;5051812;28;20857;-68
2021/09/25 00:05:17;;;;;;;59.00;3.30;;;11.70;1.00;;;;;;5051436;28;20452;-68
2021/09/25 00:07:44;;;;;;;58.27;2.87;;;11.70;1.00;;;;;;5051595;28;20473;-68
2021/09/25 00:10:12;;;;;;;59.97;3.87;;;11.60;1.00;;;;;;5051326;28;20482;-68
2021/09/25 00:12:39;;;;;;;58.57;2.80;;;11.60;1.00;;;;;;5051166;28;20483;-68
2021/09/25 00:15:08;;;;;;;58.67;2.70;;;11.60;1.00;;;;;;5051200;28;20536;-68
2021/09/25 00:17:35;;;;;;;58.47;2.77;;;11.60;1.00;;;;;;5050831;28;20972;-68
2021/09/25 00:20:02;;;;;;;58.60;2.80;;;11.60;1.00;;;;;;5051207;28;20444;-68
2021/09/25 00:22:28;;;;;;;58.63;2.90;;;11.50;1.00;;;;;;5051284;28;20486;-68
2021/09/25 00:24:55;;;;;;;58.73;2.90;;;11.50;1.00;;;;;;5051639;28;20810;-68
2021/09/25 00:27:24;;;;;;;58.80;4.03;;;11.50;1.00;;;;;;5050849;28;20470;-68
2021/09/25 00:29:51;;;;;;;59.00;4.10;;;11.50;1.00;;;;;;5050806;28;20488;-68
2021/09/25 00:32:19;;;;;;;58.67;2.60;;;11.40;1.00;;;;;;5050317;28;20524;-68
2021/09/25 00:34:46;;;;;;;58.23;2.70;;;11.40;1.00;;;;;;5050952;28;20445;-68
2021/09/25 00:37:13;;;;;;;58.53;2.80;;;11.40;1.00;;;;;;5050545;28;20559;-68
2021/09/25 00:39:40;;;;;;;58.47;2.90;;;11.30;1.00;;;;;;5050835;28;20487;-68
2021/09/25 00:42:06;;;;;;;58.67;2.93;;;11.30;1.00;;;;;;5051192;28;20450;-68
2021/09/25 00:44:33;;;;;;;59.33;3.33;;;11.20;1.00;;;;;;5051142;28;20916;-68
2021/09/25 00:47:00;;;;;;;58.67;2.90;;;11.10;1.00;;;;;;5050434;28;21005;-68
2021/09/25 00:49:29;;;;;;;58.77;3.23;;;11.10;1.00;;;;;;5050803;28;20440;-68
2021/09/25 00:51:57;;;;;;;58.77;3.40;;;11.10;1.00;;;;;;5050732;28;20881;-68
2021/09/25 00:54:23;;;;;;;58.63;3.10;;;11.10;1.00;;;;;;5050964;28;20482;-68
2021/09/25 00:56:51;;;;;;;58.40;2.83;;;11.00;1.00;;;;;;5050292;28;20944;-68
2021/09/25 00:59:19;;;;;;;58.80;2.87;;;11.00;1.00;;;;;;5050719;28;20535;-68
2021/09/25 01:01:47;;;;;;;58.57;2.80;;;10.90;1.00;;;;;;5050531;28;20444;-68
2021/09/25 01:04:14;;;;;;;61.00;5.20;;;10.80;1.00;;;;;;5050690;28;20535;-68
2021/09/25 01:06:42;;;;;;;59.17;3.47;;;10.90;1.00;;;;;;5050552;28;20870;-68
2021/09/25 01:09:09;;;;;;;59.27;3.23;;;10.80;1.00;;;;;;5050674;28;20539;-68
2021/09/25 01:11:36;;;;;;;58.43;2.97;;;10.80;1.00;;;;;;5050378;28;20523;-68
2021/09/25 01:14:04;;;;;;;58.57;3.00;;;10.80;1.00;;;;;;5050419;28;20535;-68
2021/09/25 01:16:31;;;;;;;58.97;3.20;;;10.80;1.00;;;;;;5050080;28;20456;-68
2021/09/25 01:18:58;;;;;;;58.67;2.90;;;10.70;1.00;;;;;;5050500;28;20568;-68
2021/09/25 01:21:27;;;;;;;58.87;2.90;;;10.70;1.00;;;;;;5050086;28;21011;-68
2021/09/25 01:23:54;;;;;;;59.00;3.00;;;10.70;1.00;;;;;;5050338;28;20527;-68
2021/09/25 01:26:24;;;;;;;59.00;3.00;;;10.70;1.00;;;;;;5049850;28;20463;-68
2021/09/25 01:28:52;;;;;;;58.80;2.90;;;10.70;1.00;;;;;;5050332;28;20533;-68
2021/09/25 01:31:19;;;;;;;58.67;2.90;;;10.70;1.00;;;;;;5049998;28;20493;-68
2021/09/25 01:33:51;;;;;;;58.77;3.03;;;10.80;1.00;;;;;;5049862;28;20452;-69
2021/09/25 01:36:18;;;;;;;58.90;3.83;;;10.70;1.00;;;;;;5050095;28;20811;-69
2021/09/25 01:38:47;;;;;;;59.90;3.00;;;10.70;1.00;;;;;;5050191;28;20551;-69
2021/09/25 01:41:15;;;;;;;58.33;2.90;;;10.70;1.00;;;;;;5049981;28;20532;-69
2021/09/25 01:43:42;;;;;;;59.00;3.03;;;10.70;1.00;;;;;;5049756;28;20459;-69
2021/09/25 01:46:09;;;;;;;58.47;3.00;;;10.60;1.00;;;;;;5049354;28;20535;-69
2021/09/25 01:48:36;;;;;;;58.80;3.63;;;10.60;1.00;;;;;;5049615;28;20547;-68
2021/09/25 01:51:03;;;;;;;58.73;3.00;;;10.60;1.00;;;;;;5049757;28;20849;-68
2021/09/25 01:53:30;;;;;;;58.67;2.90;;;10.70;1.00;;;;;;5049796;28;20448;-68
2021/09/25 01:56:05;;;;;;;58.67;3.00;;;10.70;1.00;;;;;;5049450;28;20536;-68
2021/09/25 01:58:32;;;;;;;60.07;3.10;;;10.70;1.00;;;;;;5048142;28;20550;-68
2021/09/25 02:00:59;;;;;;;58.67;3.23;;;10.80;1.00;;;;;;5049516;28;21032;-68
2021/09/25 02:03:26;;;;;;;58.63;3.10;;;10.80;1.00;;;;;;5049681;28;20483;-68
2021/09/25 02:05:53;;;;;;;58.63;3.50;;;10.80;1.00;;;;;;5049223;28;20519;-68
2021/09/25 02:08:20;;;;;;;58.47;2.90;;;10.70;1.00;;;;;;5049631;28;20547;-68
2021/09/25 02:10:47;;;;;;;58.53;3.30;;;10.70;1.00;;;;;;5049219;28;20575;-68
2021/09/25 02:13:16;;;;;;;58.77;2.97;;;10.60;1.00;;;;;;5049600;28;20470;-68
2021/09/25 02:15:42;;;;;;;58.83;2.97;;;10.60;1.00;;;;;;5049432;28;20451;-68
2021/09/25 02:18:09;;;;;;;58.80;3.10;;;10.60;1.00;;;;;;5049543;28;20736;-69
2021/09/25 02:20:36;;;;;;;58.37;2.90;;;10.60;1.00;;;;;;5049451;28;20527;-68
2021/09/25 02:23:03;;;;;;;58.47;2.80;;;10.60;1.00;;;;;;5049699;28;20905;-69
2021/09/25 02:25:30;;;;;;;58.50;3.03;;;10.60;1.00;;;;;;5049409;28;20448;-69
2021/09/25 02:27:57;;;;;;;58.53;2.80;;;10.60;1.00;;;;;;5049508;28;20464;-69
2021/09/25 02:30:26;;;;;;;58.47;2.80;;;10.60;1.00;;;;;;5049229;28;20495;-69
2021/09/25 02:32:54;;;;;;;58.57;2.90;;;10.60;1.00;;;;;;5049384;28;20452;-69
2021/09/25 02:35:22;;;;;;;58.63;3.00;;;10.50;1.00;;;;;;5049139;28;20494;-68
2021/09/25 02:37:50;;;;;;;58.57;2.63;;;10.50;1.00;;;;;;5049085;28;20508;-68
2021/09/25 02:40:18;;;;;;;58.47;2.83;;;10.40;1.00;;;;;;5049550;28;20447;-68
2021/09/25 02:42:46;;;;;;;58.47;2.87;;;10.40;1.00;;;;;;5049106;28;20453;-68
2021/09/25 02:45:14;;;;;;;58.60;2.77;;;10.30;1.00;;;;;;5049408;28;20457;-68
2021/09/25 02:47:43;;;;;;;58.43;2.70;;;10.30;1.00;;;;;;5049021;28;20512;-68
2021/09/25 02:50:12;;;;;;;58.80;2.80;;;10.30;1.00;;;;;;5048906;28;20459;-68
2021/09/25 02:52:39;;;;;;;58.37;2.70;;;10.30;1.00;;;;;;5048891;28;20940;-68
2021/09/25 02:55:08;;;;;;;58.80;3.50;;;10.30;1.00;;;;;;5048508;28;20448;-68
2021/09/25 02:57:35;;;;;;;58.43;2.60;;;10.20;1.00;;;;;;5048211;28;20477;-68
2021/09/25 03:00:02;;;;;;;58.60;2.90;;;10.30;1.00;;;;;;5048932;28;20444;-69
2021/09/25 03:02:28;;;;;;;58.37;2.63;;;10.30;1.00;;;;;;5048959;28;20534;-69
2021/09/25 03:04:57;;;;;;;59.30;2.90;;;10.30;1.00;;;;;;5048462;28;20447;-68
2021/09/25 03:07:23;;;;;;;58.47;3.00;;;10.30;1.00;;;;;;5048602;28;20551;-68
2021/09/25 03:09:50;;;;;;;58.57;2.67;;;10.30;1.00;;;;;;5048498;28;20543;-68
2021/09/25 03:12:17;;;;;;;58.57;2.90;;;10.30;1.00;;;;;;5048769;28;20587;-68
2021/09/25 03:14:44;;;;;;;58.53;2.90;;;10.30;1.00;;;;;;5048834;28;20487;-68
2021/09/25 03:17:11;;;;;;;58.50;2.90;;;10.30;1.00;;;;;;5048501;28;20478;-69
2021/09/25 03:19:37;;;;;;;58.23;2.63;;;10.30;1.00;;;;;;5048637;28;20981;-69
2021/09/25 03:22:06;;;;;;;58.57;3.00;;;10.30;1.00;;;;;;5048992;28;20542;-69
2021/09/25 03:24:32;;;;;;;58.70;3.10;;;10.30;1.00;;;;;;5048613;28;20527;-69
2021/09/25 03:27:00;;;;;;;59.90;4.57;;;10.20;1.00;;;;;;5048040;28;20855;-68
2021/09/25 03:29:26;;;;;;;58.37;2.60;;;10.20;1.00;;;;;;5048530;28;20877;-68
2021/09/25 03:31:53;;;;;;;58.63;2.90;;;10.20;1.00;;;;;;5048602;28;20483;-68
2021/09/25 03:34:20;;;;;;;58.90;3.20;;;10.10;1.00;;;;;;5048778;28;20559;-68
2021/09/25 03:36:47;;;;;;;58.53;2.73;;;10.10;1.00;;;;;;5048380;28;21013;-68
2021/09/25 03:39:15;;;;;;;59.20;3.23;;;10.00;1.00;;;;;;5048778;28;20822;-68
2021/09/25 03:41:43;;;;;;;58.90;3.13;;;10.00;1.00;;;;;;5048624;28;20444;-68
2021/09/25 03:44:11;;;;;;;58.57;2.77;;;10.00;1.00;;;;;;5048355;28;20460;-68
2021/09/25 03:46:38;;;;;;;58.87;3.17;;;10.00;1.00;;;;;;5047820;28;20543;-68
2021/09/25 03:49:05;;;;;;;58.70;2.80;;;10.00;1.00;;;;;;5048247;28;20966;-68
2021/09/25 03:51:32;;;;;;;59.80;3.87;;;10.00;1.00;;;;;;5048269;28;20524;-68
2021/09/25 03:53:59;;;;;;;59.50;3.20;;;10.10;1.00;;;;;;5048265;28;20448;-68
2021/09/25 03:56:27;;;;;;;58.63;2.80;;;10.10;1.00;;;;;;5047777;28;20452;-68
2021/09/25 03:58:54;;;;;;;58.70;3.00;;;10.10;1.00;;;;;;5048026;28;20877;-68
2021/09/25 04:01:21;;;;;;;58.80;3.10;;;10.00;1.00;;;;;;5048133;28;20444;-68
2021/09/25 04:03:48;;;;;;;58.43;2.90;;;10.00;1.00;;;;;;5048018;28;20475;-68
2021/09/25 04:06:15;;;;;;;58.70;2.70;;;10.00;1.00;;;;;;5047707;28;20450;-68
2021/09/25 04:08:41;;;;;;;58.43;2.70;;;10.00;1.00;;;;;;5049734;28;20554;-68
2021/09/25 04:11:08;;;;;;;58.63;3.10;;;10.00;1.00;;;;;;5051214;28;20476;-68
2021/09/25 04:13:36;;;;;;;58.37;2.80;;;10.00;1.00;;;;;;5051140;28;20488;-69
2021/09/25 04:16:04;;;;;;;58.57;2.83;;;10.10;1.00;;;;;;5051084;28;20472;-68
2021/09/25 04:18:30;;;;;;;58.50;2.70;;;10.10;1.00;;;;;;5051024;28;20476;-68
2021/09/25 04:20:57;;;;;;;58.53;2.80;;;10.10;1.00;;;;;;5051208;28;20863;-68
2021/09/25 04:23:24;;;;;;;58.80;2.93;;;10.10;1.00;;;;;;5051056;28;20535;-69
2021/09/25 04:25:51;;;;;;;58.50;2.87;;;10.10;1.00;;;;;;5050716;28;20444;-68
2021/09/25 04:28:18;;;;;;;58.47;3.00;;;10.00;1.00;;;;;;5050890;28;20848;-69
2021/09/25 04:30:46;;;;;;;58.70;3.03;;;10.00;1.00;;;;;;5051136;28;20913;-69
2021/09/25 04:33:13;;;;;;;58.37;2.67;;;10.00;1.00;;;;;;5051033;28;20461;-68
2021/09/25 04:35:40;;;;;;;58.67;2.90;;;10.00;1.00;;;;;;5050589;28;20491;-68
2021/09/25 04:38:07;;;;;;;58.70;2.73;;;10.00;1.00;;;;;;5050749;28;20874;-68
2021/09/25 04:40:35;;;;;;;58.57;3.00;;;10.00;1.00;;;;;;5050756;28;20534;-68
2021/09/25 04:43:02;;;;;;;58.63;3.13;;;9.90;1.00;;;;;;5051068;28;20552;-68
2021/09/25 04:45:30;;;;;;;58.77;2.90;;;9.90;1.00;;;;;;5050581;28;20447;-68
2021/09/25 04:47:58;;;;;;;59.00;3.20;;;9.90;1.00;;;;;;5050681;28;20836;-69
2021/09/25 04:50:29;;;;;;;58.60;2.80;;;9.80;1.00;;;;;;5050765;28;20478;-69
2021/09/25 04:53:03;;;;;;;58.90;3.00;;;9.80;1.00;;;;;;5050578;28;20527;-69
2021/09/25 04:55:30;;;;;;;58.70;3.00;;;9.80;1.00;;;;;;5050257;28;20938;-69
2021/09/25 04:57:57;;;;;;;58.57;2.90;;;9.80;1.00;;;;;;5050282;28;21054;-69
2021/09/25 05:00:24;;;;;;;58.63;3.13;;;9.70;1.00;;;;;;5050592;28;20452;-69
2021/09/25 05:02:51;;;;;;;58.50;2.90;;;9.70;1.00;;;;;;5050359;28;20484;-69
2021/09/25 05:05:19;;;;;;;58.57;2.90;;;9.70;1.00;;;;;;5050407;28;20551;-69
2021/09/25 05:07:46;;;;;;;59.40;3.50;;;9.70;1.00;;;;;;5049983;28;20468;-69
2021/09/25 05:10:13;;;;;;;58.37;2.80;;;9.70;1.00;;;;;;5050683;28;20526;-69
2021/09/25 05:12:40;;;;;;;58.53;2.87;;;9.70;1.00;;;;;;5050324;28;20594;-69
2021/09/25 05:15:08;;;;;;;60.63;3.40;;;9.70;1.00;;;;;;5050214;28;20452;-69
2021/09/25 05:17:35;;;;;;;59.00;3.00;;;9.70;1.00;;;;;;5049925;28;20464;-69
2021/09/25 05:20:03;;;;;;;58.53;3.00;;;9.70;1.00;;;;;;5049717;28;20452;-68
2021/09/25 05:22:32;;;;;;;58.47;2.80;;;9.70;1.00;;;;;;5050061;28;20456;-69
2021/09/25 05:24:58;;;;;;;58.37;2.80;;;9.60;1.00;;;;;;5050300;28;20470;-68
2021/09/25 05:27:25;;;;;;;58.53;2.70;;;9.60;1.00;;;;;;5049803;28;20478;-68
2021/09/25 05:29:52;;;;;;;58.60;2.90;;;9.70;1.00;;;;;;5049903;28;20463;-68
2021/09/25 05:32:19;;;;;;;58.37;3.03;;;9.70;1.00;;;;;;5049931;28;20575;-68
2021/09/25 05:34:46;;;;;;;58.50;2.73;;;9.70;1.00;;;;;;5049899;28;20459;-68
2021/09/25 05:37:16;;;;;;;58.57;2.87;;;9.70;1.00;;;;;;5049721;28;20470;-68
2021/09/25 05:39:44;;;;;;;58.53;2.70;;;9.70;1.00;;;;;;5050282;28;20472;-69
2021/09/25 05:42:11;;;;;;;58.77;2.80;;;9.70;1.00;;;;;;5049880;28;20443;-68
2021/09/25 05:44:38;;;;;;;60.50;2.90;;;9.70;1.00;;;;;;5049737;28;20548;-68
2021/09/25 05:47:05;;;;;;;58.60;2.90;;;9.70;1.00;;;;;;5049501;28;20475;-68
2021/09/25 05:49:32;;;;;;;58.70;2.87;;;9.70;1.00;;;;;;5049658;28;20455;-69
2021/09/25 05:52:01;;;;;;;58.70;3.10;;;9.70;1.00;;;;;;5049787;28;20515;-68
2021/09/25 05:54:28;;;;;;;58.47;2.83;;;9.70;1.00;;;;;;5049603;28;20447;-68
2021/09/25 05:56:56;;;;;;;58.27;2.80;;;9.70;1.00;;;;;;5049374;28;20558;-68
2021/09/25 05:59:23;;;;;;;58.50;3.00;;;9.70;1.00;;;;;;5049622;28;20544;-69
2021/09/25 06:01:50;;;;;;;58.57;3.10;;;9.80;1.00;;;;;;5049760;28;20535;-69
2021/09/25 06:04:17;;;;;;;58.67;2.70;;;9.80;1.00;;;;;;5049840;28;20464;-68
2021/09/25 06:06:43;;;;;;;58.70;3.07;;;9.80;1.00;;;;;;5049452;28;20857;-69
2021/09/25 06:09:10;;;;;;;58.57;2.60;;;9.80;1.00;;;;;;5049660;28;20538;-69
2021/09/25 06:11:37;;;;;;;58.47;2.80;;;9.80;1.00;;;;;;5049449;28;20522;-69
2021/09/25 06:14:05;;;;;;;58.33;2.60;;;9.80;1.00;;;;;;5049319;28;20542;-69
2021/09/25 06:16:32;;;;;;;58.27;2.63;;;9.90;1.00;;;;;;5049257;28;20535;-69
2021/09/25 06:18:59;;;;;;;58.37;2.60;;;9.90;1.00;;;;;;5049411;28;20537;-69
2021/09/25 06:21:26;;;;;;;58.50;2.57;;;9.90;1.00;;;;;;5049428;28;20442;-69
2021/09/25 06:23:53;;;;;;;58.47;2.47;;;10.00;1.00;;;;;;5049368;28;20885;-69
2021/09/25 06:26:19;;;;;;;59.00;2.87;;;10.10;1.00;;;;;;5048954;28;20875;-69
2021/09/25 06:28:47;;;;;;;58.50;2.90;;;10.10;1.00;;;;;;5049003;28;20481;-69
2021/09/25 06:31:17;;;;;;;58.37;3.10;;;10.20;1.00;;;;;;5047997;28;20460;-69
2021/09/25 06:33:45;;;;;;;58.53;3.20;;;10.20;1.00;;;;;;5049240;28;20678;-69
2021/09/25 06:36:12;;;;;;;58.60;3.10;;;10.20;1.00;;;;;;5049171;28;20485;-69
2021/09/25 06:38:39;;;;;;;58.37;2.70;;;10.30;1.00;;;;;;5048826;28;20979;-69
2021/09/25 06:41:06;;;;;;;58.10;2.60;;;10.30;1.00;;;;;;5049041;28;20520;-69
2021/09/25 06:43:34;;;;;;;58.47;2.80;;;10.40;1.00;;;;;;5048972;28;20535;-69
2021/09/25 06:46:00;;;;;;;58.33;2.83;;;10.40;1.00;;;;;;5049049;28;20460;-69
2021/09/25 06:48:29;;;;;;;58.60;3.10;;;10.50;1.00;;;;;;5049187;28;20563;-69
2021/09/25 06:50:55;;;;;;;58.30;2.67;;;10.50;1.00;;;;;;5048961;28;20480;-69
2021/09/25 06:53:22;;;;;;;58.87;2.90;;;10.50;1.00;;;;;;5049000;28;20487;-69
2021/09/25 06:55:50;;;;;;;58.03;2.70;;;10.60;1.00;;;;;;5048606;28;20538;-69
2021/09/25 06:58:17;;;;;;;58.63;2.90;;;10.60;1.00;;;;;;5048885;28;20479;-69
2021/09/25 07:00:47;;;;;;;58.20;2.70;;;10.70;1.00;;;;;;5049251;28;20452;-69
2021/09/25 07:03:14;;;;;;;59.57;2.70;;;10.70;1.00;;;;;;5048712;28;20463;-69
2021/09/25 07:05:42;;;;;;;58.30;2.80;;;10.80;1.00;;;;;;5048630;28;20444;-69
2021/09/25 07:08:09;;;;;;;58.10;2.90;;;10.90;1.00;;;;;;5048621;28;20834;-69
2021/09/25 07:10:37;;;;;;;58.47;3.03;;;11.00;1.00;;;;;;5048601;28;20459;-69
2021/09/25 07:13:04;;;;;;;58.47;2.70;;;11.10;1.00;;;;;;5048463;28;20483;-69
2021/09/25 07:15:31;;;;;;;58.37;2.70;;;11.20;1.00;;;;;;5048281;28;20672;-69
2021/09/25 07:17:58;;;;;;;58.50;2.97;;;11.20;1.00;;;;;;5048665;28;20584;-69
2021/09/25 07:20:26;;;;;;;58.27;2.70;;;11.30;1.00;;;;;;5048692;28;20955;-69
2021/09/25 07:22:54;;;;;;;58.17;2.80;;;11.40;1.00;;;;;;5048512;28;20447;-69
2021/09/25 07:25:22;;;;;;;58.20;2.73;;;11.50;1.00;;;;;;5048342;28;20444;-68
2021/09/25 07:27:49;;;;;;;58.37;2.90;;;11.60;1.00;;;;;;5048616;28;20551;-68
2021/09/25 07:30:16;;;;;;;58.57;3.00;;;11.70;1.00;;;;;;5048483;28;20564;-68
2021/09/25 07:32:44;;;;;;;58.33;2.70;;;11.80;1.00;;;;;;5048439;28;20480;-68
2021/09/25 07:35:13;;;;;;;58.30;2.77;;;11.90;1.00;;;;;;5048563;28;20535;-68
2021/09/25 07:37:41;;;;;;;58.57;3.00;;;12.00;1.00;;;;;;5048127;28;20532;-68
2021/09/25 07:40:11;;;;;;;58.50;2.80;;;12.10;1.00;;;;;;5048213;28;20931;-69
2021/09/25 07:42:38;;;;;;;58.23;2.80;;;12.20;1.00;;;;;;5050379;28;20446;-69
2021/09/25 07:45:06;;;;;;;58.40;3.13;;;12.30;1.00;;;;;;5051808;28;20827;-69
2021/09/25 07:47:35;;;;;;;58.37;2.87;;;12.50;1.00;;;;;;5051544;28;20475;-69
2021/09/25 07:50:03;;;;;;;58.27;3.10;;;12.60;1.00;;;;;;5051641;28;20536;-70
2021/09/25 07:52:29;;;;;;;58.47;3.00;;;12.70;1.00;;;;;;5051554;28;20519;-70
2021/09/25 07:54:56;;;;;;;58.37;3.00;;;12.80;1.00;;;;;;5051708;28;20452;-70
2021/09/25 07:57:25;;;;;;;58.13;2.70;;;13.00;1.00;;;;;;5051416;28;20508;-70
2021/09/25 07:59:51;;;;;;;57.87;2.70;;;13.10;1.00;;;;;;5051546;28;20471;-70
2021/09/25 08:02:18;;;;;;;58.27;2.90;;;13.30;1.00;;;;;;5051607;28;20936;-70
2021/09/25 08:04:45;;;;;;;58.60;3.43;;;13.40;1.00;;;;;;5051276;28;20451;-70
2021/09/25 08:07:12;;;;;;;58.40;3.00;;;13.60;1.00;;;;;;5051110;28;21034;-70
2021/09/25 08:09:39;;;;;;;58.17;2.83;;;13.70;1.00;;;;;;5051522;28;20458;-70
2021/09/25 08:12:06;;;;;;;58.60;3.00;;;13.80;1.00;;;;;;5051361;28;20566;-70
2021/09/25 08:14:34;;;;;;;58.67;3.40;;;14.00;1.00;;;;;;5051459;28;20867;-70
2021/09/25 08:17:01;;;;;;;58.27;2.53;;;14.10;1.00;;;;;;5051274;28;20549;-70
2021/09/25 08:19:28;;;;;;;58.23;2.80;;;14.30;1.00;;;;;;5051113;28;20441;-70
2021/09/25 08:21:55;;;;;;;58.40;2.90;;;14.40;1.00;;;;;;5051362;28;20451;-70
2021/09/25 08:24:22;;;;;;;58.33;2.83;;;14.50;1.00;;;;;;5051487;28;20456;-70
2021/09/25 08:26:49;;;;;;;58.27;2.77;;;14.70;1.00;;;;;;5051029;28;20455;-70
2021/09/25 08:29:16;;;;;;;58.27;2.60;;;14.90;1.00;;;;;;5051282;28;20474;-70
2021/09/25 08:31:44;;;;;;;58.17;2.87;;;15.00;1.00;;;;;;5050983;28;20462;-70
2021/09/25 08:34:13;;;;;;;58.27;2.63;;;15.10;1.00;;;;;;5051321;28;20450;-70
2021/09/25 08:36:40;;;;;;;58.17;2.73;;;15.30;1.00;;;;;;5050483;28;20961;-70
2021/09/25 08:39:07;;;;;;;58.07;2.63;;;15.40;1.00;;;;;;5051050;28;20880;-70
2021/09/25 08:41:35;;;;;;;58.30;2.80;;;15.60;1.00;;;;;;5051068;28;20447;-68
2021/09/25 08:44:03;;;;;;;57.93;2.53;;;15.70;1.00;;;;;;5050855;28;20541;-69
2021/09/25 08:46:29;;;;;;;58.80;3.70;;;15.90;1.00;;;;;;5050539;28;20545;-69
2021/09/25 08:48:58;;;;;;;58.43;2.67;;;16.00;1.00;;;;;;5050890;28;20486;-68
2021/09/25 08:51:25;;;;;;;57.97;2.70;;;16.10;1.00;;;;;;5050663;28;21021;-68
2021/09/25 08:53:51;;;;;;;58.17;2.70;;;16.30;1.00;;;;;;5049892;28;20581;-68
2021/09/25 08:56:18;;;;;;;57.97;2.50;;;16.50;1.00;;;;;;5050666;28;20485;-68
2021/09/25 08:58:48;;;;;;;58.43;2.60;;;16.60;1.00;;;;;;5050632;28;20982;-68
2021/09/25 09:01:19;;;;;;;58.60;2.50;;;16.70;1.00;;;;;;5050664;28;20456;-68
2021/09/25 09:03:47;;;;;;;58.17;2.50;;;16.80;1.00;;;;;;5050887;28;20432;-68
2021/09/25 09:06:18;;;;;;;57.97;2.60;;;16.90;1.00;;;;;;5050374;28;20571;-69
2021/09/25 09:08:47;;;;;;;57.87;2.40;;;17.00;1.00;;;;;;5050568;28;20472;-69
2021/09/25 09:11:15;;;;;;;58.90;3.10;;;17.20;1.00;;;;;;5050400;28;20499;-69
2021/09/25 09:13:44;;;;;;;58.17;2.90;;;17.30;1.00;;;;;;5050795;28;20487;-69
2021/09/25 09:16:13;;;;;;;58.17;2.60;;;17.40;1.00;;;;;;5050235;28;20450;-69
2021/09/25 09:18:42;;;;;;;59.47;3.93;;;17.50;1.00;;;;;;5050601;28;20468;-69
2021/09/25 09:21:14;;;;;;;58.20;3.03;;;17.60;1.00;;;;;;5050376;28;20459;-69
2021/09/25 09:23:45;;;;;;;58.40;2.90;;;17.80;1.00;;;;;;5050336;28;20467;-70
2021/09/25 09:26:15;;;;;;;58.17;2.40;;;17.90;1.00;;;;;;5049890;28;20471;-70
2021/09/25 09:28:43;;;;;;;58.80;3.00;;;18.20;1.00;;;;;;5050372;28;20470;-70
2021/09/25 09:31:11;;;;;;;58.30;2.60;;;18.40;1.00;;;;;;5050075;28;21036;-70
2021/09/25 09:33:41;;;;;;;58.23;2.60;;;18.60;1.00;;;;;;5050128;28;20943;-70
2021/09/25 09:36:16;;;;;;;58.60;2.60;;;19.00;1.00;;;;;;5050224;28;20812;-70
2021/09/25 09:38:50;;;;;;;58.17;3.17;;;19.40;1.00;;;;;;5050049;28;20556;-70
2021/09/25 09:41:19;;;;;;;58.83;3.27;;;19.90;1.00;;;;;;5050268;28;20904;-70
2021/09/25 09:43:47;;;;;;;58.20;2.90;;;20.50;1.00;;;;;;5050339;28;20445;-70
2021/09/25 09:46:14;;;;;;;59.13;3.53;;;21.10;1.00;;;;;;5049604;28;20454;-70
2021/09/25 09:48:41;;;;;;;58.27;2.70;;;21.90;1.00;;;;;;5049788;28;20468;-70
2021/09/25 09:51:07;;;;;;;57.87;2.73;;;22.50;1.00;;;;;;5049990;28;20531;-70
2021/09/25 09:53:45;;;;;;;58.70;2.43;;;23.40;1.00;;;;;;5049682;28;21014;-70
2021/09/25 09:56:24;;;;;;;58.33;2.87;;;24.30;1.00;;;;;;5049676;28;20534;-68
2021/09/25 09:59:01;;;;;;;58.57;2.97;;;24.90;1.00;;;;;;5049926;28;20550;-70
2021/09/25 10:01:29;;;;;;;57.90;2.60;;;25.50;1.00;;;;;;5049584;28;20505;-70
2021/09/25 10:03:58;;;;;;;57.57;2.20;;;26.00;1.00;;;;;;5049815;28;20470;-69
2021/09/25 10:06:25;;;;;;;57.70;2.53;;;26.50;1.00;;;;;;5049193;28;20451;-69
2021/09/25 10:08:53;;;;;;;58.20;2.67;;;27.20;1.00;;;;;;5049519;28;20475;-70
2021/09/25 10:11:20;;;;;;;58.07;2.70;;;27.70;1.00;;;;;;5049708;28;20455;-70
2021/09/25 10:13:48;;;;;;;57.50;2.20;;;28.10;1.00;;;;;;5049404;28;20569;-70
2021/09/25 10:16:15;;;;;;;58.57;3.00;;;28.40;1.00;;;;;;5049269;28;20479;-70
2021/09/25 10:18:43;;;;;;;57.57;2.20;;;28.70;1.00;;;;;;5049539;28;20468;-70
2021/09/25 10:21:12;;;;;;;58.07;2.70;;;29.00;1.00;;;;;;5049569;28;20455;-70
2021/09/25 10:23:45;;;;;;;57.50;2.13;;;29.10;1.00;;;;;;5049092;28;20455;-70
2021/09/25 10:26:16;;;;;;;57.53;2.20;;;29.40;1.00;;;;;;5048996;28;20447;-70
2021/09/25 10:28:53;;;;;;;58.10;2.87;;;29.90;1.00;;;;;;5049187;28;20898;-70
2021/09/25 10:31:20;;;;;;;58.20;2.77;;;30.00;1.00;;;;;;5049256;28;20834;-69
2021/09/25 10:34:16;;;;;;;57.47;2.20;;;30.50;1.00;;;;;;5049050;28;20567;-70
2021/09/25 10:36:48;;;;;;;58.00;2.50;;;30.80;1.00;;;;;;5014040;28;20452;-69
2021/09/25 10:39:36;;;;;;;57.60;2.67;;;30.80;1.00;;;;;;5049339;28;20445;-70
2021/09/25 10:42:15;;;;;;;57.50;2.20;;;31.10;1.00;;;;;;5049011;28;20505;-70
2021/09/25 10:44:49;;;;;;;57.37;2.17;;;31.70;1.00;;;;;;5048996;28;20531;-70
2021/09/25 10:47:18;;;;;;;57.87;2.13;;;32.10;1.00;;;;;;5048632;28;20472;-68
2021/09/25 10:49:50;;;;;;;57.50;2.43;;;32.60;1.00;;;;;;5049126;28;21031;-70
2021/09/25 10:52:20;;;;;;;57.23;2.20;;;33.30;1.00;;;;;;5049065;28;20440;-69
2021/09/25 10:55:19;;;;;;;57.87;2.27;;;33.90;1.00;;;;;;5049057;28;20484;-70
2021/09/25 10:58:15;;;;;;;57.97;2.37;;;34.50;1.00;;;;;;5048642;28;20473;-69
2021/09/25 11:00:59;;;;;;;57.10;2.50;;;34.90;1.00;;;;;;5049193;28;20504;-69
2021/09/25 11:04:07;;;;;;;57.43;2.50;;;35.10;1.00;;;;;;5049017;28;20519;-69
2021/09/25 11:06:56;;;;;;;57.27;2.40;;;34.80;1.00;;;;;;5048913;28;20432;-69
2021/09/25 11:09:29;;;;;;;57.20;2.43;;;34.20;1.00;;;;;;5048730;28;20457;-69
2021/09/25 11:11:58;;;;;;;57.20;2.10;;;34.50;1.00;;;;;;5048625;28;20487;-69
2021/09/25 11:14:30;;;;;;;57.57;2.37;;;35.10;1.00;;;;;;5048438;28;20502;-69
2021/09/25 11:17:05;;;;;;;57.13;2.10;;;35.50;1.00;;;;;;5049210;28;20991;-69
2021/09/25 11:19:35;;;;;;;57.30;2.30;;;35.80;1.00;;;;;;5052461;28;20454;-69
2021/09/25 11:22:05;;;;;;;57.03;2.40;;;36.20;1.00;;;;;;5052473;28;20455;-69
2021/09/25 11:24:35;;;;;;;57.40;2.17;;;36.60;1.00;;;;;;5052180;28;20598;-70
2021/09/25 11:27:06;;;;;;;57.07;2.50;;;36.60;1.00;;;;;;5051761;28;20896;-69
2021/09/25 11:29:35;;;;;;;57.27;2.70;;;36.40;1.00;;;;;;5052169;28;20546;-69
2021/09/25 11:32:05;;;;;;;57.13;2.67;;;36.40;1.00;;;;;;5052078;28;20819;-69
2021/09/25 11:34:33;;;;;;;57.50;2.10;;;36.40;1.00;;;;;;5052004;28;20866;-70
2021/09/25 11:37:02;;;;;;;57.20;2.37;;;36.40;1.00;;;;;;5051466;28;20979;-70
2021/09/25 11:39:41;;;;;;;56.90;1.80;;;36.40;1.00;;;;;;5051825;28;20527;-70
2021/09/25 11:42:09;;;;;;;56.97;2.17;;;36.80;1.00;;;;;;5052205;28;20789;-70
2021/09/25 11:44:46;;;;;;;56.97;2.20;;;37.30;1.00;;;;;;5052099;28;20828;-70
2021/09/25 11:47:24;;;;;;;57.00;2.30;;;37.40;1.00;;;;;;5051666;28;20468;-70
2021/09/25 11:49:51;;;;;;;56.70;2.00;;;37.40;1.00;;;;;;5051838;28;20436;-70
2021/09/25 11:52:19;;;;;;;57.60;2.10;;;37.20;1.00;;;;;;5051766;28;20827;-70
2021/09/25 11:54:47;;;;;;;57.20;2.00;;;37.10;1.00;;;;;;5051681;28;20480;-70
2021/09/25 11:57:15;;;;;;;57.20;2.50;;;37.20;1.00;;;;;;5051239;28;20914;-70
2021/09/25 11:59:43;;;;;;;56.87;2.10;;;37.20;1.00;;;;;;5051534;28;20809;-70
2021/09/25 12:02:10;;;;;;;56.97;2.23;;;37.20;1.00;;;;;;5051708;28;20948;-69
2021/09/25 12:04:42;;;;;;;56.97;2.43;;;37.10;1.00;;;;;;5051413;28;20448;-69
2021/09/25 12:07:09;;;;;;;57.10;2.37;;;37.20;1.00;;;;;;5051076;28;20836;-70
2021/09/25 12:09:43;;;;;;;56.83;2.40;;;37.10;1.00;;;;;;5051471;28;20567;-70
2021/09/25 12:12:11;;;;;;;57.47;2.73;;;37.10;1.00;;;;;;5051301;28;20450;-70
2021/09/25 12:14:46;;;;;;;57.33;2.50;;;37.10;1.00;;;;;;5051197;28;20475;-70
2021/09/25 12:17:14;;;;;;;56.80;2.27;;;37.20;1.00;;;;;;5051078;28;20467;-69
2021/09/25 12:19:43;;;;;;;56.97;2.57;;;37.60;1.00;;;;;;5051214;28;20947;-69
2021/09/25 12:22:19;;;;;;;56.53;1.80;;;38.10;1.00;;;;;;5051037;28;20484;-69
2021/09/25 12:24:46;;;;;;;56.47;2.10;;;38.30;1.00;;;;;;5051429;28;20467;-69
2021/09/25 12:27:13;;;;;;;57.10;2.80;;;38.30;1.00;;;;;;5050646;28;20835;-69
2021/09/25 12:29:40;;;;;;;57.43;3.20;;;38.30;1.00;;;;;;5049687;28;20449;-69
2021/09/25 12:32:09;;;;;;;56.60;2.30;;;;;;;;;;5051177;28;20452;-69
2021/09/25 12:34:49;;;;;;;56.90;2.73;;;39.10;1.00;;;;;;5050994;28;20480;-69
2021/09/25 12:37:16;;;;;;;56.87;2.37;;;39.70;1.00;;;;;;5050812;28;20555;-69
2021/09/25 12:39:44;;;;;;;56.90;2.40;;;40.20;1.00;;;;;;5050904;28;20831;-69
2021/09/25 12:42:24;;;;;;;56.90;2.50;;;40.50;1.00;;;;;;5050918;28;20940;-69
2021/09/25 12:44:54;;;;;;;57.07;2.33;;;40.90;1.00;;;;;;5050842;28;20531;-69
2021/09/25 12:47:31;;;;;;;56.83;2.27;;;40.70;1.00;;;;;;5050770;28;20471;-69
2021/09/25 12:50:14;;;;;;;56.63;2.17;;;40.30;1.00;;;;;;5051232;28;20448;-69
2021/09/25 12:52:41;;;;;;;56.77;2.40;;;40.50;1.00;;;;;;5048959;28;20455;-69
2021/09/25 12:55:09;;;;;;;57.87;2.30;;;40.80;1.00;;;;;;5050858;28;20484;-69